sensor_id;sensor_type;location;lat;lon;timestamp;P1;durP1;ratioP1;P2;durP2;ratioP2
64609;SDS011;51019;46.090;6.350;2023-11-19T00:00:51;14.30;;;5.68;;
64609;SDS011;51019;46.090;6.350;2023-11-19T00:03:18;15.05;;;5.05;;
64609;SDS011;51019;46.090;6.350;2023-11-19T00:05:47;13.57;;;4.85;;
64609;SDS011;51019;46.090;6.350;2023-11-19T00:08:15;12.88;;;4.63;;
64609;SDS011;51019;46.090;6.350;2023-11-19T00:10:42;14.07;;;5.65;;
64609;SDS011;51019;46.090;6.350;2023-11-19T00:13:11;15.60;;;6.55;;
64609;SDS011;51019;46.090;6.350;2023-11-19T00:15:38;14.63;;;5.38;;
64609;SDS011;51019;46.090;6.350;2023-11-19T00:18:05;12.20;;;3.83;;
64609;SDS011;51019;46.090;6.350;2023-11-19T00:20:33;10.40;;;3.42;;
64609;SDS011;51019;46.090;6.350;2023-11-19T00:23:01;10.30;;;3.08;;
64609;SDS011;51019;46.090;6.350;2023-11-19T00:25:28;11.95;;;4.05;;
64609;SDS011;51019;46.090;6.350;2023-11-19T00:27:56;11.70;;;3.47;;
64609;SDS011;51019;46.090;6.350;2023-11-19T00:30:23;13.95;;;4.32;;
64609;SDS011;51019;46.090;6.350;2023-11-19T00:32:50;12.23;;;4.30;;
64609;SDS011;51019;46.090;6.350;2023-11-19T00:35:17;13.27;;;4.47;;
64609;SDS011;51019;46.090;6.350;2023-11-19T00:37:45;14.82;;;5.57;;
64609;SDS011;51019;46.090;6.350;2023-11-19T00:40:14;14.20;;;5.43;;
64609;SDS011;51019;46.090;6.350;2023-11-19T00:42:43;14.10;;;5.55;;
64609;SDS011;51019;46.090;6.350;2023-11-19T00:45:11;15.77;;;6.72;;
64609;SDS011;51019;46.090;6.350;2023-11-19T00:47:39;14.80;;;5.63;;
64609;SDS011;51019;46.090;6.350;2023-11-19T00:50:07;14.40;;;5.53;;
64609;SDS011;51019;46.090;6.350;2023-11-19T00:52:36;16.30;;;5.88;;
64609;SDS011;51019;46.090;6.350;2023-11-19T00:55:03;15.32;;;5.75;;
64609;SDS011;51019;46.090;6.350;2023-11-19T00:57:33;12.70;;;4.93;;
64609;SDS011;51019;46.090;6.350;2023-11-19T01:00:03;13.93;;;5.63;;
64609;SDS011;51019;46.090;6.350;2023-11-19T01:02:42;16.17;;;5.80;;
64609;SDS011;51019;46.090;6.350;2023-11-19T01:05:09;16.55;;;5.70;;
64609;SDS011;51019;46.090;6.350;2023-11-19T01:07:39;14.45;;;5.32;;
64609;SDS011;51019;46.090;6.350;2023-11-19T01:10:07;14.65;;;5.10;;
64609;SDS011;51019;46.090;6.350;2023-11-19T01:12:37;15.35;;;5.53;;
64609;SDS011;51019;46.090;6.350;2023-11-19T01:15:04;16.83;;;5.43;;
64609;SDS011;51019;46.090;6.350;2023-11-19T01:17:32;13.88;;;5.57;;
64609;SDS011;51019;46.090;6.350;2023-11-19T01:19:59;16.20;;;5.30;;
64609;SDS011;51019;46.090;6.350;2023-11-19T01:22:26;13.68;;;4.93;;
64609;SDS011;51019;46.090;6.350;2023-11-19T01:24:55;13.02;;;5.35;;
64609;SDS011;51019;46.090;6.350;2023-11-19T01:27:23;14.15;;;4.90;;
64609;SDS011;51019;46.090;6.350;2023-11-19T01:29:52;14.50;;;5.13;;
64609;SDS011;51019;46.090;6.350;2023-11-19T01:32:20;12.98;;;5.20;;
64609;SDS011;51019;46.090;6.350;2023-11-19T01:34:49;14.88;;;5.25;;
64609;SDS011;51019;46.090;6.350;2023-11-19T01:37:16;15.65;;;5.72;;
64609;SDS011;51019;46.090;6.350;2023-11-19T01:39:45;16.33;;;4.97;;
64609;SDS011;51019;46.090;6.350;2023-11-19T01:42:14;12.93;;;5.43;;
64609;SDS011;51019;46.090;6.350;2023-11-19T01:44:41;13.40;;;5.55;;
64609;SDS011;51019;46.090;6.350;2023-11-19T01:47:10;15.43;;;5.68;;
64609;SDS011;51019;46.090;6.350;2023-11-19T01:49:39;14.38;;;5.45;;
64609;SDS011;51019;46.090;6.350;2023-11-19T01:52:06;14.25;;;6.03;;
64609;SDS011;51019;46.090;6.350;2023-11-19T01:54:33;13.80;;;5.53;;
64609;SDS011;51019;46.090;6.350;2023-11-19T01:57:01;13.50;;;4.80;;
64609;SDS011;51019;46.090;6.350;2023-11-19T01:59:28;15.50;;;5.30;;
64609;SDS011;51019;46.090;6.350;2023-11-19T02:01:57;13.77;;;5.60;;
64609;SDS011;51019;46.090;6.350;2023-11-19T02:04:26;14.20;;;5.95;;
64609;SDS011;51019;46.090;6.350;2023-11-19T02:06:56;16.80;;;5.50;;
64609;SDS011;51019;46.090;6.350;2023-11-19T02:09:25;15.57;;;6.00;;
64609;SDS011;51019;46.090;6.350;2023-11-19T02:11:52;14.07;;;5.38;;
64609;SDS011;51019;46.090;6.350;2023-11-19T02:14:25;16.92;;;6.03;;
64609;SDS011;51019;46.090;6.350;2023-11-19T02:16:53;14.50;;;5.68;;
64609;SDS011;51019;46.090;6.350;2023-11-19T02:19:21;13.50;;;5.50;;
64609;SDS011;51019;46.090;6.350;2023-11-19T02:21:50;13.48;;;5.38;;
64609;SDS011;51019;46.090;6.350;2023-11-19T02:24:17;14.50;;;5.65;;
64609;SDS011;51019;46.090;6.350;2023-11-19T02:26:51;13.57;;;5.13;;
64609;SDS011;51019;46.090;6.350;2023-11-19T02:29:26;14.43;;;5.13;;
64609;SDS011;51019;46.090;6.350;2023-11-19T02:31:53;14.40;;;5.45;;
64609;SDS011;51019;46.090;6.350;2023-11-19T02:34:21;13.98;;;5.40;;
64609;SDS011;51019;46.090;6.350;2023-11-19T02:36:48;14.43;;;5.22;;
64609;SDS011;51019;46.090;6.350;2023-11-19T02:39:16;12.18;;;4.88;;
64609;SDS011;51019;46.090;6.350;2023-11-19T02:41:46;14.40;;;5.47;;
64609;SDS011;51019;46.090;6.350;2023-11-19T02:44:16;16.15;;;5.38;;
64609;SDS011;51019;46.090;6.350;2023-11-19T02:46:45;15.85;;;6.10;;
64609;SDS011;51019;46.090;6.350;2023-11-19T02:49:13;16.55;;;5.97;;
64609;SDS011;51019;46.090;6.350;2023-11-19T02:51:40;16.00;;;6.10;;
64609;SDS011;51019;46.090;6.350;2023-11-19T02:54:08;15.02;;;5.38;;
64609;SDS011;51019;46.090;6.350;2023-11-19T02:56:35;15.95;;;5.95;;
64609;SDS011;51019;46.090;6.350;2023-11-19T02:59:04;14.13;;;5.85;;
64609;SDS011;51019;46.090;6.350;2023-11-19T03:01:40;15.73;;;5.97;;
64609;SDS011;51019;46.090;6.350;2023-11-19T03:04:10;14.43;;;5.75;;
64609;SDS011;51019;46.090;6.350;2023-11-19T03:06:42;16.52;;;6.50;;
64609;SDS011;51019;46.090;6.350;2023-11-19T03:09:09;14.65;;;5.63;;
64609;SDS011;51019;46.090;6.350;2023-11-19T03:11:37;13.45;;;5.00;;
64609;SDS011;51019;46.090;6.350;2023-11-19T03:14:04;13.35;;;4.95;;
64609;SDS011;51019;46.090;6.350;2023-11-19T03:16:32;13.27;;;5.05;;
64609;SDS011;51019;46.090;6.350;2023-11-19T03:19:01;13.60;;;4.75;;
64609;SDS011;51019;46.090;6.350;2023-11-19T03:21:31;12.77;;;4.90;;
64609;SDS011;51019;46.090;6.350;2023-11-19T03:23:59;14.32;;;4.88;;
64609;SDS011;51019;46.090;6.350;2023-11-19T03:26:26;16.73;;;5.25;;
64609;SDS011;51019;46.090;6.350;2023-11-19T03:28:54;12.75;;;4.97;;
64609;SDS011;51019;46.090;6.350;2023-11-19T03:31:22;15.90;;;5.22;;
64609;SDS011;51019;46.090;6.350;2023-11-19T03:33:50;14.13;;;5.43;;
64609;SDS011;51019;46.090;6.350;2023-11-19T03:36:19;13.45;;;4.57;;
64609;SDS011;51019;46.090;6.350;2023-11-19T03:38:48;13.73;;;5.20;;
64609;SDS011;51019;46.090;6.350;2023-11-19T03:41:15;14.27;;;5.32;;
64609;SDS011;51019;46.090;6.350;2023-11-19T03:43:43;13.43;;;4.82;;
64609;SDS011;51019;46.090;6.350;2023-11-19T03:46:17;13.25;;;5.30;;
64609;SDS011;51019;46.090;6.350;2023-11-19T03:48:44;12.68;;;4.50;;
64609;SDS011;51019;46.090;6.350;2023-11-19T03:51:13;13.10;;;5.00;;
64609;SDS011;51019;46.090;6.350;2023-11-19T03:53:41;14.13;;;5.22;;
64609;SDS011;51019;46.090;6.350;2023-11-19T03:56:11;13.57;;;4.75;;
64609;SDS011;51019;46.090;6.350;2023-11-19T03:58:39;15.05;;;5.80;;
64609;SDS011;51019;46.090;6.350;2023-11-19T04:01:10;13.15;;;5.03;;
64609;SDS011;51019;46.090;6.350;2023-11-19T04:03:38;13.82;;;5.20;;
64609;SDS011;51019;46.090;6.350;2023-11-19T04:06:06;14.30;;;4.97;;
64609;SDS011;51019;46.090;6.350;2023-11-19T04:08:33;13.75;;;5.32;;
64609;SDS011;51019;46.090;6.350;2023-11-19T04:11:01;13.25;;;4.70;;
64609;SDS011;51019;46.090;6.350;2023-11-19T04:13:30;12.88;;;5.20;;
64609;SDS011;51019;46.090;6.350;2023-11-19T04:15:58;14.55;;;5.55;;
64609;SDS011;51019;46.090;6.350;2023-11-19T04:18:25;14.00;;;5.57;;
64609;SDS011;51019;46.090;6.350;2023-11-19T04:20:52;13.00;;;4.95;;
64609;SDS011;51019;46.090;6.350;2023-11-19T04:23:20;13.27;;;4.60;;
64609;SDS011;51019;46.090;6.350;2023-11-19T04:25:47;13.30;;;4.65;;
64609;SDS011;51019;46.090;6.350;2023-11-19T04:28:14;12.35;;;4.25;;
64609;SDS011;51019;46.090;6.350;2023-11-19T04:30:44;13.45;;;4.10;;
64609;SDS011;51019;46.090;6.350;2023-11-19T04:33:12;13.07;;;3.90;;
64609;SDS011;51019;46.090;6.350;2023-11-19T04:35:40;10.45;;;3.10;;
64609;SDS011;51019;46.090;6.350;2023-11-19T04:38:07;11.82;;;3.67;;
64609;SDS011;51019;46.090;6.350;2023-11-19T04:40:35;11.20;;;3.60;;
64609;SDS011;51019;46.090;6.350;2023-11-19T04:43:02;12.63;;;4.40;;
64609;SDS011;51019;46.090;6.350;2023-11-19T04:45:30;12.50;;;4.43;;
64609;SDS011;51019;46.090;6.350;2023-11-19T04:47:59;14.48;;;4.70;;
64609;SDS011;51019;46.090;6.350;2023-11-19T04:50:26;13.25;;;4.20;;
64609;SDS011;51019;46.090;6.350;2023-11-19T04:52:54;12.95;;;4.03;;
64609;SDS011;51019;46.090;6.350;2023-11-19T04:55:21;11.77;;;3.85;;
64609;SDS011;51019;46.090;6.350;2023-11-19T04:57:48;11.32;;;4.00;;
64609;SDS011;51019;46.090;6.350;2023-11-19T05:00:15;11.15;;;3.45;;
64609;SDS011;51019;46.090;6.350;2023-11-19T05:02:43;11.88;;;3.60;;
64609;SDS011;51019;46.090;6.350;2023-11-19T05:05:12;10.00;;;3.20;;
64609;SDS011;51019;46.090;6.350;2023-11-19T05:07:39;11.27;;;3.60;;
64609;SDS011;51019;46.090;6.350;2023-11-19T05:10:07;12.35;;;4.13;;
64609;SDS011;51019;46.090;6.350;2023-11-19T05:12:35;12.68;;;4.57;;
64609;SDS011;51019;46.090;6.350;2023-11-19T05:15:02;13.63;;;5.10;;
64609;SDS011;51019;46.090;6.350;2023-11-19T05:17:30;12.50;;;4.38;;
64609;SDS011;51019;46.090;6.350;2023-11-19T05:19:57;12.52;;;4.00;;
64609;SDS011;51019;46.090;6.350;2023-11-19T05:22:26;11.02;;;3.95;;
64609;SDS011;51019;46.090;6.350;2023-11-19T05:24:53;12.35;;;3.90;;
64609;SDS011;51019;46.090;6.350;2023-11-19T05:27:21;13.20;;;4.13;;
64609;SDS011;51019;46.090;6.350;2023-11-19T05:29:49;13.25;;;4.70;;
64609;SDS011;51019;46.090;6.350;2023-11-19T05:32:16;12.90;;;4.18;;
64609;SDS011;51019;46.090;6.350;2023-11-19T05:34:43;13.77;;;4.25;;
64609;SDS011;51019;46.090;6.350;2023-11-19T05:37:10;14.68;;;4.50;;
64609;SDS011;51019;46.090;6.350;2023-11-19T05:39:40;12.30;;;4.55;;
64609;SDS011;51019;46.090;6.350;2023-11-19T05:42:07;12.40;;;4.22;;
64609;SDS011;51019;46.090;6.350;2023-11-19T05:44:34;13.50;;;4.60;;
64609;SDS011;51019;46.090;6.350;2023-11-19T05:47:01;13.07;;;4.35;;
64609;SDS011;51019;46.090;6.350;2023-11-19T05:49:29;13.05;;;4.75;;
64609;SDS011;51019;46.090;6.350;2023-11-19T05:51:56;15.05;;;7.22;;
64609;SDS011;51019;46.090;6.350;2023-11-19T05:54:23;15.15;;;6.32;;
64609;SDS011;51019;46.090;6.350;2023-11-19T05:56:53;11.68;;;4.38;;
64609;SDS011;51019;46.090;6.350;2023-11-19T05:59:20;12.70;;;4.95;;
64609;SDS011;51019;46.090;6.350;2023-11-19T06:01:48;11.82;;;4.20;;
64609;SDS011;51019;46.090;6.350;2023-11-19T06:04:15;12.55;;;4.93;;
64609;SDS011;51019;46.090;6.350;2023-11-19T06:06:42;13.50;;;4.65;;
64609;SDS011;51019;46.090;6.350;2023-11-19T06:09:09;13.23;;;4.88;;
64609;SDS011;51019;46.090;6.350;2023-11-19T06:11:38;12.52;;;4.47;;
64609;SDS011;51019;46.090;6.350;2023-11-19T06:14:07;13.93;;;4.10;;
64609;SDS011;51019;46.090;6.350;2023-11-19T06:16:34;12.18;;;3.58;;
64609;SDS011;51019;46.090;6.350;2023-11-19T06:19:02;11.00;;;3.60;;
64609;SDS011;51019;46.090;6.350;2023-11-19T06:21:29;10.32;;;3.15;;
64609;SDS011;51019;46.090;6.350;2023-11-19T06:23:56;13.23;;;3.80;;
64609;SDS011;51019;46.090;6.350;2023-11-19T06:26:24;11.60;;;3.88;;
64609;SDS011;51019;46.090;6.350;2023-11-19T06:28:51;10.43;;;3.20;;
64609;SDS011;51019;46.090;6.350;2023-11-19T06:31:20;9.80;;;2.85;;
64609;SDS011;51019;46.090;6.350;2023-11-19T06:33:50;10.85;;;3.13;;
64609;SDS011;51019;46.090;6.350;2023-11-19T06:36:17;9.75;;;2.97;;
64609;SDS011;51019;46.090;6.350;2023-11-19T06:38:44;10.85;;;2.58;;
64609;SDS011;51019;46.090;6.350;2023-11-19T06:41:12;11.18;;;3.00;;
64609;SDS011;51019;46.090;6.350;2023-11-19T06:43:40;10.13;;;2.88;;
64609;SDS011;51019;46.090;6.350;2023-11-19T06:46:14;8.85;;;2.25;;
64609;SDS011;51019;46.090;6.350;2023-11-19T06:48:43;10.77;;;2.65;;
64609;SDS011;51019;46.090;6.350;2023-11-19T06:51:11;10.32;;;2.70;;
64609;SDS011;51019;46.090;6.350;2023-11-19T06:53:38;10.40;;;2.90;;
64609;SDS011;51019;46.090;6.350;2023-11-19T06:56:06;12.52;;;3.30;;
64609;SDS011;51019;46.090;6.350;2023-11-19T06:58:44;10.70;;;2.60;;
64609;SDS011;51019;46.090;6.350;2023-11-19T07:01:12;13.95;;;3.42;;
64609;SDS011;51019;46.090;6.350;2023-11-19T07:03:40;11.68;;;2.85;;
64609;SDS011;51019;46.090;6.350;2023-11-19T07:06:10;9.75;;;3.00;;
64609;SDS011;51019;46.090;6.350;2023-11-19T07:08:40;10.95;;;3.15;;
64609;SDS011;51019;46.090;6.350;2023-11-19T07:11:10;11.68;;;3.05;;
64609;SDS011;51019;46.090;6.350;2023-11-19T07:13:37;10.85;;;3.05;;
64609;SDS011;51019;46.090;6.350;2023-11-19T07:16:05;12.57;;;3.10;;
64609;SDS011;51019;46.090;6.350;2023-11-19T07:18:35;10.32;;;2.70;;
64609;SDS011;51019;46.090;6.350;2023-11-19T07:21:03;9.77;;;2.72;;
64609;SDS011;51019;46.090;6.350;2023-11-19T07:23:34;12.65;;;3.22;;
64609;SDS011;51019;46.090;6.350;2023-11-19T07:26:04;11.50;;;3.90;;
64609;SDS011;51019;46.090;6.350;2023-11-19T07:28:33;11.98;;;4.40;;
64609;SDS011;51019;46.090;6.350;2023-11-19T07:31:00;11.75;;;3.47;;
64609;SDS011;51019;46.090;6.350;2023-11-19T07:33:27;10.05;;;3.20;;
64609;SDS011;51019;46.090;6.350;2023-11-19T07:35:55;12.02;;;3.58;;
64609;SDS011;51019;46.090;6.350;2023-11-19T07:38:22;11.55;;;3.75;;
64609;SDS011;51019;46.090;6.350;2023-11-19T07:40:51;11.52;;;3.10;;
64609;SDS011;51019;46.090;6.350;2023-11-19T07:43:18;13.60;;;3.55;;
64609;SDS011;51019;46.090;6.350;2023-11-19T07:45:46;12.18;;;3.33;;
64609;SDS011;51019;46.090;6.350;2023-11-19T07:48:13;8.95;;;2.47;;
64609;SDS011;51019;46.090;6.350;2023-11-19T07:50:43;9.57;;;3.00;;
64609;SDS011;51019;46.090;6.350;2023-11-19T07:53:11;9.25;;;2.90;;
64609;SDS011;51019;46.090;6.350;2023-11-19T07:55:38;8.80;;;2.50;;
64609;SDS011;51019;46.090;6.350;2023-11-19T07:58:07;9.57;;;2.80;;
64609;SDS011;51019;46.090;6.350;2023-11-19T08:00:34;12.05;;;3.28;;
64609;SDS011;51019;46.090;6.350;2023-11-19T08:03:04;11.27;;;3.00;;
64609;SDS011;51019;46.090;6.350;2023-11-19T08:05:32;10.30;;;2.95;;
64609;SDS011;51019;46.090;6.350;2023-11-19T08:07:59;11.20;;;2.70;;
64609;SDS011;51019;46.090;6.350;2023-11-19T08:10:27;11.63;;;2.60;;
64609;SDS011;51019;46.090;6.350;2023-11-19T08:12:54;9.55;;;2.55;;
64609;SDS011;51019;46.090;6.350;2023-11-19T08:15:24;9.18;;;2.67;;
64609;SDS011;51019;46.090;6.350;2023-11-19T08:17:51;9.60;;;2.50;;
64609;SDS011;51019;46.090;6.350;2023-11-19T08:20:18;11.88;;;3.20;;
64609;SDS011;51019;46.090;6.350;2023-11-19T08:22:45;10.00;;;2.70;;
64609;SDS011;51019;46.090;6.350;2023-11-19T08:25:13;8.70;;;2.53;;
64609;SDS011;51019;46.090;6.350;2023-11-19T08:27:41;11.05;;;2.70;;
64609;SDS011;51019;46.090;6.350;2023-11-19T08:30:08;8.48;;;2.40;;
64609;SDS011;51019;46.090;6.350;2023-11-19T08:32:38;11.25;;;2.40;;
64609;SDS011;51019;46.090;6.350;2023-11-19T08:35:06;10.70;;;3.50;;
64609;SDS011;51019;46.090;6.350;2023-11-19T08:37:33;9.60;;;2.38;;
64609;SDS011;51019;46.090;6.350;2023-11-19T08:40:01;10.05;;;2.38;;
64609;SDS011;51019;46.090;6.350;2023-11-19T08:42:34;10.60;;;3.10;;
64609;SDS011;51019;46.090;6.350;2023-11-19T08:45:04;10.80;;;3.17;;
64609;SDS011;51019;46.090;6.350;2023-11-19T08:47:35;9.00;;;2.58;;
64609;SDS011;51019;46.090;6.350;2023-11-19T08:50:05;9.40;;;2.58;;
64609;SDS011;51019;46.090;6.350;2023-11-19T08:52:33;10.05;;;2.67;;
64609;SDS011;51019;46.090;6.350;2023-11-19T08:55:03;11.40;;;3.45;;
64609;SDS011;51019;46.090;6.350;2023-11-19T08:57:34;11.73;;;3.35;;
64609;SDS011;51019;46.090;6.350;2023-11-19T09:00:02;11.93;;;3.30;;
64609;SDS011;51019;46.090;6.350;2023-11-19T09:02:32;10.57;;;3.20;;
64609;SDS011;51019;46.090;6.350;2023-11-19T09:04:59;10.40;;;3.08;;
64609;SDS011;51019;46.090;6.350;2023-11-19T09:07:29;10.10;;;3.00;;
64609;SDS011;51019;46.090;6.350;2023-11-19T09:09:56;10.90;;;3.28;;
64609;SDS011;51019;46.090;6.350;2023-11-19T09:12:23;13.35;;;3.35;;
64609;SDS011;51019;46.090;6.350;2023-11-19T09:14:50;10.85;;;2.90;;
64609;SDS011;51019;46.090;6.350;2023-11-19T09:17:17;10.05;;;2.90;;
64609;SDS011;51019;46.090;6.350;2023-11-19T09:19:45;9.23;;;2.53;;
64609;SDS011;51019;46.090;6.350;2023-11-19T09:22:12;11.07;;;3.10;;
64609;SDS011;51019;46.090;6.350;2023-11-19T09:24:41;10.18;;;2.70;;
64609;SDS011;51019;46.090;6.350;2023-11-19T09:27:09;8.63;;;2.42;;
64609;SDS011;51019;46.090;6.350;2023-11-19T09:29:37;7.25;;;2.30;;
64609;SDS011;51019;46.090;6.350;2023-11-19T09:32:04;9.82;;;2.80;;
64609;SDS011;51019;46.090;6.350;2023-11-19T09:34:32;10.40;;;2.50;;
64609;SDS011;51019;46.090;6.350;2023-11-19T09:36:59;9.35;;;2.78;;
64609;SDS011;51019;46.090;6.350;2023-11-19T09:39:28;9.73;;;3.08;;
64609;SDS011;51019;46.090;6.350;2023-11-19T09:41:57;9.95;;;2.63;;
64609;SDS011;51019;46.090;6.350;2023-11-19T09:44:24;10.32;;;2.95;;
64609;SDS011;51019;46.090;6.350;2023-11-19T09:46:53;10.38;;;2.90;;
64609;SDS011;51019;46.090;6.350;2023-11-19T09:49:21;10.25;;;2.70;;
64609;SDS011;51019;46.090;6.350;2023-11-19T09:51:51;8.98;;;2.60;;
64609;SDS011;51019;46.090;6.350;2023-11-19T09:54:18;9.77;;;2.58;;
64609;SDS011;51019;46.090;6.350;2023-11-19T09:56:45;10.13;;;2.80;;
64609;SDS011;51019;46.090;6.350;2023-11-19T09:59:15;11.73;;;3.08;;
64609;SDS011;51019;46.090;6.350;2023-11-19T10:01:45;10.48;;;2.55;;
64609;SDS011;51019;46.090;6.350;2023-11-19T10:04:14;19.15;;;5.25;;
64609;SDS011;51019;46.090;6.350;2023-11-19T10:06:44;12.35;;;3.13;;
64609;SDS011;51019;46.090;6.350;2023-11-19T10:09:11;10.85;;;3.13;;
64609;SDS011;51019;46.090;6.350;2023-11-19T10:11:40;11.27;;;3.17;;
64609;SDS011;51019;46.090;6.350;2023-11-19T10:14:07;11.38;;;3.72;;
64609;SDS011;51019;46.090;6.350;2023-11-19T10:16:37;16.05;;;5.10;;
64609;SDS011;51019;46.090;6.350;2023-11-19T10:19:05;17.42;;;5.95;;
64609;SDS011;51019;46.090;6.350;2023-11-19T10:21:32;10.13;;;3.50;;
64609;SDS011;51019;46.090;6.350;2023-11-19T10:24:00;13.93;;;4.00;;
64609;SDS011;51019;46.090;6.350;2023-11-19T10:26:27;13.05;;;4.55;;
64609;SDS011;51019;46.090;6.350;2023-11-19T10:28:55;12.45;;;4.75;;
64609;SDS011;51019;46.090;6.350;2023-11-19T10:31:23;11.73;;;3.70;;
64609;SDS011;51019;46.090;6.350;2023-11-19T10:33:53;8.90;;;2.72;;
64609;SDS011;51019;46.090;6.350;2023-11-19T10:36:28;10.70;;;3.20;;
64609;SDS011;51019;46.090;6.350;2023-11-19T10:39:05;20.48;;;6.05;;
64609;SDS011;51019;46.090;6.350;2023-11-19T10:41:34;12.90;;;3.50;;
64609;SDS011;51019;46.090;6.350;2023-11-19T10:44:01;13.20;;;4.38;;
64609;SDS011;51019;46.090;6.350;2023-11-19T10:46:38;19.50;;;7.65;;
64609;SDS011;51019;46.090;6.350;2023-11-19T10:49:08;23.80;;;7.15;;
64609;SDS011;51019;46.090;6.350;2023-11-19T10:51:36;43.03;;;17.13;;
64609;SDS011;51019;46.090;6.350;2023-11-19T10:54:08;49.67;;;25.02;;
64609;SDS011;51019;46.090;6.350;2023-11-19T10:56:37;31.13;;;14.20;;
64609;SDS011;51019;46.090;6.350;2023-11-19T10:59:06;21.17;;;9.88;;
64609;SDS011;51019;46.090;6.350;2023-11-19T11:01:39;17.67;;;7.03;;
64609;SDS011;51019;46.090;6.350;2023-11-19T11:04:12;14.75;;;5.18;;
64609;SDS011;51019;46.090;6.350;2023-11-19T11:06:45;18.73;;;9.50;;
64609;SDS011;51019;46.090;6.350;2023-11-19T11:09:13;13.57;;;4.45;;
64609;SDS011;51019;46.090;6.350;2023-11-19T11:11:41;13.07;;;4.15;;
64609;SDS011;51019;46.090;6.350;2023-11-19T11:14:13;13.55;;;4.20;;
64609;SDS011;51019;46.090;6.350;2023-11-19T11:16:41;19.38;;;9.45;;
64609;SDS011;51019;46.090;6.350;2023-11-19T11:19:12;15.50;;;4.93;;
64609;SDS011;51019;46.090;6.350;2023-11-19T11:21:40;13.35;;;4.15;;
64609;SDS011;51019;46.090;6.350;2023-11-19T11:24:19;12.93;;;4.53;;
64609;SDS011;51019;46.090;6.350;2023-11-19T11:27:02;14.27;;;4.82;;
64609;SDS011;51019;46.090;6.350;2023-11-19T11:29:56;13.63;;;5.10;;
64609;SDS011;51019;46.090;6.350;2023-11-19T11:32:36;12.88;;;4.72;;
64609;SDS011;51019;46.090;6.350;2023-11-19T11:35:19;13.52;;;4.75;;
64609;SDS011;51019;46.090;6.350;2023-11-19T11:37:55;12.77;;;4.43;;
64609;SDS011;51019;46.090;6.350;2023-11-19T11:40:28;13.93;;;5.30;;
64609;SDS011;51019;46.090;6.350;2023-11-19T11:42:56;14.77;;;5.32;;
64609;SDS011;51019;46.090;6.350;2023-11-19T11:45:35;16.63;;;6.60;;
64609;SDS011;51019;46.090;6.350;2023-11-19T11:48:09;18.33;;;7.32;;
64609;SDS011;51019;46.090;6.350;2023-11-19T11:50:49;15.60;;;5.93;;
64609;SDS011;51019;46.090;6.350;2023-11-19T11:53:25;14.77;;;5.70;;
64609;SDS011;51019;46.090;6.350;2023-11-19T11:55:56;14.05;;;5.32;;
64609;SDS011;51019;46.090;6.350;2023-11-19T11:58:27;13.70;;;5.65;;
64609;SDS011;51019;46.090;6.350;2023-11-19T12:01:03;13.90;;;5.65;;
64609;SDS011;51019;46.090;6.350;2023-11-19T12:03:44;17.50;;;6.00;;
64609;SDS011;51019;46.090;6.350;2023-11-19T12:06:13;14.82;;;5.70;;
64609;SDS011;51019;46.090;6.350;2023-11-19T12:08:40;14.55;;;4.75;;
64609;SDS011;51019;46.090;6.350;2023-11-19T12:11:07;14.10;;;4.50;;
64609;SDS011;51019;46.090;6.350;2023-11-19T12:13:47;20.63;;;8.27;;
64609;SDS011;51019;46.090;6.350;2023-11-19T12:16:20;15.50;;;7.25;;
64609;SDS011;51019;46.090;6.350;2023-11-19T12:18:48;17.60;;;5.93;;
64609;SDS011;51019;46.090;6.350;2023-11-19T12:24:02;12.18;;;4.82;;
64609;SDS011;51019;46.090;6.350;2023-11-19T12:26:36;17.20;;;6.05;;
64609;SDS011;51019;46.090;6.350;2023-11-19T12:29:04;15.65;;;5.78;;
64609;SDS011;51019;46.090;6.350;2023-11-19T12:31:32;14.85;;;5.75;;
64609;SDS011;51019;46.090;6.350;2023-11-19T12:34:05;14.05;;;4.45;;
64609;SDS011;51019;46.090;6.350;2023-11-19T12:36:38;14.10;;;4.15;;
64609;SDS011;51019;46.090;6.350;2023-11-19T12:39:07;14.70;;;4.43;;
64609;SDS011;51019;46.090;6.350;2023-11-19T12:41:48;11.80;;;3.80;;
64609;SDS011;51019;46.090;6.350;2023-11-19T12:44:16;16.08;;;5.65;;
64609;SDS011;51019;46.090;6.350;2023-11-19T12:46:43;12.48;;;3.85;;
64609;SDS011;51019;46.090;6.350;2023-11-19T12:49:11;12.82;;;4.30;;
64609;SDS011;51019;46.090;6.350;2023-11-19T12:51:40;13.98;;;5.00;;
64609;SDS011;51019;46.090;6.350;2023-11-19T12:54:07;13.75;;;4.55;;
64609;SDS011;51019;46.090;6.350;2023-11-19T12:56:34;11.73;;;3.70;;
64609;SDS011;51019;46.090;6.350;2023-11-19T12:59:10;11.75;;;4.00;;
64609;SDS011;51019;46.090;6.350;2023-11-19T13:01:40;10.93;;;3.45;;
64609;SDS011;51019;46.090;6.350;2023-11-19T13:04:16;11.07;;;3.20;;
64609;SDS011;51019;46.090;6.350;2023-11-19T13:06:49;14.40;;;3.45;;
64609;SDS011;51019;46.090;6.350;2023-11-19T13:09:23;10.23;;;2.83;;
64609;SDS011;51019;46.090;6.350;2023-11-19T13:11:51;9.50;;;2.97;;
64609;SDS011;51019;46.090;6.350;2023-11-19T13:14:19;9.02;;;2.78;;
64609;SDS011;51019;46.090;6.350;2023-11-19T13:16:46;9.27;;;2.55;;
64609;SDS011;51019;46.090;6.350;2023-11-19T13:19:14;10.10;;;2.60;;
64609;SDS011;51019;46.090;6.350;2023-11-19T13:21:44;10.40;;;2.90;;
64609;SDS011;51019;46.090;6.350;2023-11-19T13:24:14;10.60;;;2.80;;
64609;SDS011;51019;46.090;6.350;2023-11-19T13:26:41;9.23;;;2.70;;
64609;SDS011;51019;46.090;6.350;2023-11-19T13:29:08;10.35;;;2.90;;
64609;SDS011;51019;46.090;6.350;2023-11-19T13:31:36;11.63;;;3.30;;
64609;SDS011;51019;46.090;6.350;2023-11-19T13:34:05;11.55;;;3.17;;
64609;SDS011;51019;46.090;6.350;2023-11-19T13:36:33;9.98;;;2.67;;
64609;SDS011;51019;46.090;6.350;2023-11-19T13:39:00;9.77;;;2.40;;
64609;SDS011;51019;46.090;6.350;2023-11-19T13:41:29;12.00;;;3.53;;
64609;SDS011;51019;46.090;6.350;2023-11-19T13:43:57;9.80;;;3.03;;
64609;SDS011;51019;46.090;6.350;2023-11-19T13:46:26;9.25;;;2.20;;
64609;SDS011;51019;46.090;6.350;2023-11-19T13:48:53;6.57;;;2.03;;
64609;SDS011;51019;46.090;6.350;2023-11-19T13:51:21;6.65;;;1.92;;
64609;SDS011;51019;46.090;6.350;2023-11-19T13:53:48;8.68;;;2.20;;
64609;SDS011;51019;46.090;6.350;2023-11-19T13:56:15;8.50;;;2.28;;
64609;SDS011;51019;46.090;6.350;2023-11-19T13:58:45;11.02;;;2.55;;
64609;SDS011;51019;46.090;6.350;2023-11-19T14:01:12;9.43;;;2.83;;
64609;SDS011;51019;46.090;6.350;2023-11-19T14:03:39;11.70;;;3.58;;
64609;SDS011;51019;46.090;6.350;2023-11-19T14:06:07;9.07;;;2.50;;
64609;SDS011;51019;46.090;6.350;2023-11-19T14:08:34;9.60;;;2.78;;
64609;SDS011;51019;46.090;6.350;2023-11-19T14:11:02;9.18;;;2.80;;
64609;SDS011;51019;46.090;6.350;2023-11-19T14:13:30;10.20;;;2.58;;
64609;SDS011;51019;46.090;6.350;2023-11-19T14:16:00;8.77;;;2.50;;
64609;SDS011;51019;46.090;6.350;2023-11-19T14:18:30;11.00;;;3.08;;
64609;SDS011;51019;46.090;6.350;2023-11-19T14:21:00;10.70;;;2.70;;
64609;SDS011;51019;46.090;6.350;2023-11-19T14:23:28;7.68;;;2.30;;
64609;SDS011;51019;46.090;6.350;2023-11-19T14:25:55;10.05;;;2.28;;
64609;SDS011;51019;46.090;6.350;2023-11-19T14:28:22;9.98;;;2.60;;
64609;SDS011;51019;46.090;6.350;2023-11-19T14:30:51;6.68;;;1.90;;
64609;SDS011;51019;46.090;6.350;2023-11-19T14:33:23;9.27;;;2.15;;
64609;SDS011;51019;46.090;6.350;2023-11-19T14:35:51;8.48;;;2.05;;
64609;SDS011;51019;46.090;6.350;2023-11-19T14:38:18;7.63;;;2.33;;
64609;SDS011;51019;46.090;6.350;2023-11-19T14:40:45;9.38;;;2.67;;
64609;SDS011;51019;46.090;6.350;2023-11-19T14:43:13;8.77;;;2.47;;
64609;SDS011;51019;46.090;6.350;2023-11-19T14:45:40;8.68;;;2.53;;
64609;SDS011;51019;46.090;6.350;2023-11-19T14:48:07;9.32;;;2.63;;